Columbia Metropolitan Airport Columbia US
ICAO: KCAE
IATA: CAE
Category: Large
Scheduled Services: Yes

Elevation: 236 ft
TransAlt. 18000 ft.

Airport Communications:
APP/DEP:124.15
ATIS:120.15
CLNC DEL:119.75
GND:121.9
ANDERSON RDO:122.65
TWR:119.5
UNICOM:122.95

KCAE Zoom In..

Runways:

(A) RW 05 length 8001 ft width 150 ft
ILS 108.95 / hdg 50

(B) RW 11 length 8601 ft width 150 ft
ILS 110.30 / hdg 110

(C) RW 23 length 8001 ft width 150 ft
---- / hdg 230

(D) RW 29 length 8601 ft width 150 ft
ILS 108.30 / hdg 290

Location; KCAE
Day. 13 / Time. 12.56 Zulu
* Altimeter: 29.84
* Temperature: 26° c. 78.8°f.
* Wind from: 000° Speed 00 kn.
Dewpoint: 22° c.
Visibility: 10 Statute Miles.
Clouds: Few 6500 ft.
Clouds: Few 11000 ft.
Clouds: Scattered 2000 ft.

KCAE 131256Z 00000KT 10SM FEW065 FEW110 SCT200 26/22 A2984 RMK AO2 SLP103 T02610217

Going to: --> -->


Wind - Calm.

 
 
jpsmedia worldairports.se 2020   terms of use